Time;durP1;ratioP1;P1;durP2;ratioP2;P2;SDS_P1;SDS_P2;PMS_P1;PMS_P2;Temp;Humidity;BMP_temperature;BMP_pressure;BME280_temperature;BME280_humidity;BME280_pressure;Samples;Min_cycle;Max_cycle;Signal;HPM_P1;HPM_P2
2023/10/26 00:02:13;;;;;;;1.67;0.40;;;11.20;99.90;;;;;;5032550;28;20206;-54
2023/10/26 00:04:41;;;;;;;0.77;0.50;;;11.20;99.90;;;;;;5032692;28;20262;-54
2023/10/26 00:07:09;;;;;;;1.80;0.45;;;11.10;99.90;;;;;;5032678;28;20210;-54
2023/10/26 00:09:37;;;;;;;0.50;0.50;;;11.00;99.90;;;;;;5024813;28;20298;-56
2023/10/26 00:12:06;;;;;;;4.50;0.40;;;11.00;99.90;;;;;;5031475;28;20349;-55
2023/10/26 00:14:34;;;;;;;3.80;0.70;;;10.90;99.90;;;;;;5032912;28;20217;-55
2023/10/26 00:17:02;;;;;;;0.50;0.50;;;11.00;99.90;;;;;;5056376;22;20254;-74
2023/10/26 00:19:32;;;;;;;2.17;0.60;;;11.00;99.90;;;;;;5033926;28;20207;-74
2023/10/26 00:22:00;;;;;;;1.15;0.60;;;11.00;99.90;;;;;;5037482;28;20203;-73
2023/10/26 00:24:28;;;;;;;1.88;0.82;;;10.90;99.90;;;;;;5033108;28;20277;-74
2023/10/26 00:26:56;;;;;;;2.33;0.70;;;11.00;99.90;;;;;;5031685;28;20226;-74
2023/10/26 00:29:24;;;;;;;2.47;0.70;;;11.00;99.90;;;;;;5032197;28;20211;-74
2023/10/26 00:31:52;;;;;;;1.65;0.80;;;10.90;99.90;;;;;;5040184;28;20733;-74
2023/10/26 00:34:20;;;;;;;2.08;0.80;;;10.90;99.90;;;;;;5042680;28;20230;-73
2023/10/26 00:36:49;;;;;;;0.50;0.50;;;10.90;99.90;;;;;;5040377;28;20655;-74
2023/10/26 00:39:17;;;;;;;1.33;0.90;;;11.00;99.90;;;;;;5039566;28;20269;-74
2023/10/26 00:41:45;;;;;;;0.80;0.80;;;11.00;99.90;;;;;;5031733;28;20637;-74
2023/10/26 00:44:13;;;;;;;5.70;0.90;;;11.00;99.90;;;;;;5031983;28;20226;-74
2023/10/26 00:46:41;;;;;;;0.52;0.52;;;11.00;99.90;;;;;;5031750;28;20337;-74
2023/10/26 00:49:12;;;;;;;0.77;0.77;;;11.10;99.90;;;;;;5031990;28;20203;-74
2023/10/26 00:51:40;;;;;;;1.95;0.90;;;11.10;99.90;;;;;;5031700;28;20207;-74
2023/10/26 00:54:09;;;;;;;1.50;0.70;;;11.10;99.90;;;;;;5031761;28;20205;-74
2023/10/26 00:56:37;;;;;;;1.85;0.60;;;11.10;99.90;;;;;;5031921;28;20230;-74
2023/10/26 00:59:05;;;;;;;1.85;0.75;;;11.10;99.90;;;;;;5031808;28;20213;-73
2023/10/26 01:01:35;;;;;;;2.33;0.70;;;11.20;99.90;;;;;;5031950;28;20564;-74
2023/10/26 01:04:03;;;;;;;0.70;0.70;;;11.20;99.90;;;;;;5029095;28;20258;-74
2023/10/26 01:06:31;;;;;;;0.75;0.75;;;11.20;99.90;;;;;;5031568;28;20309;-74
2023/10/26 01:08:59;;;;;;;1.38;0.90;;;11.20;99.90;;;;;;5031262;28;20215;-74
2023/10/26 01:11:28;;;;;;;2.85;0.60;;;11.10;99.90;;;;;;5031803;28;20210;-74
2023/10/26 01:13:56;;;;;;;1.55;0.73;;;11.20;99.90;;;;;;5031264;28;20198;-74
2023/10/26 01:16:24;;;;;;;3.33;0.70;;;11.10;99.90;;;;;;5037873;28;20284;-74
2023/10/26 01:18:52;;;;;;;0.95;0.70;;;11.20;99.90;;;;;;5037021;28;20207;-74
2023/10/26 01:21:20;;;;;;;3.47;0.60;;;11.20;99.90;;;;;;5040268;28;20206;-74
2023/10/26 01:23:49;;;;;;;2.92;0.80;;;11.20;99.90;;;;;;5036006;28;20203;-74
2023/10/26 01:26:17;;;;;;;1.90;0.60;;;11.20;99.90;;;;;;5031134;28;20726;-74
2023/10/26 01:28:45;;;;;;;0.80;0.80;;;11.20;99.90;;;;;;5031170;28;20234;-74
2023/10/26 01:31:16;;;;;;;4.85;0.98;;;11.20;99.90;;;;;;5031598;28;20237;-74
2023/10/26 01:33:44;;;;;;;1.52;0.88;;;11.20;99.90;;;;;;5031209;28;20203;-74
2023/10/26 01:36:12;;;;;;;2.80;0.95;;;11.20;99.90;;;;;;5031032;28;20321;-74
2023/10/26 01:38:40;;;;;;;0.90;0.90;;;11.10;99.90;;;;;;5031125;28;20206;-74
2023/10/26 01:41:09;;;;;;;1.02;0.90;;;11.20;99.90;;;;;;5031258;28;20237;-74
2023/10/26 01:43:37;;;;;;;1.38;1.00;;;11.20;99.90;;;;;;5030271;28;20676;-74
2023/10/26 01:46:05;;;;;;;2.38;1.35;;;11.20;99.90;;;;;;5031020;28;20269;-74
2023/10/26 01:48:33;;;;;;;1.85;1.30;;;11.20;99.90;;;;;;5030682;28;20202;-74
2023/10/26 01:51:01;;;;;;;1.20;1.08;;;11.20;99.90;;;;;;5030979;28;20673;-74
2023/10/26 01:53:29;;;;;;;2.05;1.35;;;11.30;99.90;;;;;;5031838;28;20678;-74
2023/10/26 01:55:57;;;;;;;1.45;1.38;;;11.30;99.90;;;;;;5030584;28;20283;-74
2023/10/26 01:58:27;;;;;;;1.42;1.33;;;11.30;99.90;;;;;;5030847;28;20202;-73
2023/10/26 02:00:55;;;;;;;2.20;1.35;;;11.40;99.90;;;;;;5029725;28;20249;-74
2023/10/26 02:03:22;;;;;;;1.85;1.60;;;11.40;99.90;;;;;;5030809;28;20202;-74
2023/10/26 02:05:50;;;;;;;1.63;1.52;;;11.30;99.90;;;;;;5030913;28;20230;-74
2023/10/26 02:08:18;;;;;;;1.58;1.40;;;11.30;99.90;;;;;;5032500;28;20680;-73
2023/10/26 02:10:46;;;;;;;1.50;1.38;;;11.30;99.90;;;;;;5030690;28;20253;-74
2023/10/26 02:13:14;;;;;;;2.05;1.17;;;11.30;99.90;;;;;;5030761;28;20261;-74
2023/10/26 02:15:44;;;;;;;1.90;1.48;;;11.30;99.90;;;;;;5032430;28;20226;-73
2023/10/26 02:18:11;;;;;;;1.60;1.60;;;11.30;99.90;;;;;;5035088;28;20664;-74
2023/10/26 02:20:39;;;;;;;2.00;1.90;;;11.20;99.90;;;;;;5030275;28;20207;-73
2023/10/26 02:23:07;;;;;;;4.13;1.65;;;11.20;99.90;;;;;;5033079;28;20241;-74
2023/10/26 02:25:35;;;;;;;3.63;1.70;;;11.20;99.90;;;;;;5037326;28;20219;-73
2023/10/26 02:28:03;;;;;;;5.47;1.65;;;11.30;99.90;;;;;;5030333;28;20207;-74
2023/10/26 02:30:31;;;;;;;1.52;1.48;;;11.20;99.90;;;;;;5030451;28;20230;-74
2023/10/26 02:33:01;;;;;;;1.75;1.65;;;11.20;99.90;;;;;;5030633;28;20261;-74
2023/10/26 02:35:29;;;;;;;1.88;1.77;;;11.20;99.90;;;;;;5030529;28;20201;-74
2023/10/26 02:37:56;;;;;;;1.70;1.60;;;11.20;99.90;;;;;;5030762;28;20211;-74
2023/10/26 02:40:24;;;;;;;3.90;1.88;;;11.30;99.90;;;;;;5030873;28;20203;-74
2023/10/26 02:42:52;;;;;;;2.00;1.90;;;11.30;99.90;;;;;;5034259;28;20400;-74
2023/10/26 02:45:20;;;;;;;2.33;1.90;;;11.30;99.90;;;;;;5030246;28;20262;-74
2023/10/26 02:47:48;;;;;;;2.00;1.90;;;11.20;99.90;;;;;;5030594;28;20234;-74
2023/10/26 02:50:17;;;;;;;1.70;1.70;;;11.30;99.90;;;;;;5034778;28;20288;-74
2023/10/26 02:52:45;;;;;;;2.20;1.55;;;11.30;99.90;;;;;;5034428;28;20215;-74
2023/10/26 02:55:13;;;;;;;1.70;1.60;;;11.30;99.90;;;;;;5035419;28;20226;-74
2023/10/26 02:57:41;;;;;;;1.58;1.58;;;11.20;99.90;;;;;;5033634;28;20227;-74
2023/10/26 03:00:12;;;;;;;1.70;1.70;;;11.30;99.90;;;;;;5033985;28;20199;-74
2023/10/26 03:02:40;;;;;;;3.42;2.00;;;11.30;99.90;;;;;;5033245;28;20284;-74
2023/10/26 03:05:08;;;;;;;1.98;1.90;;;11.30;99.90;;;;;;5033784;28;20700;-74
2023/10/26 03:07:38;;;;;;;1.65;1.65;;;11.40;99.90;;;;;;5033738;28;20222;-74
2023/10/26 03:10:06;;;;;;;1.92;1.92;;;11.30;99.90;;;;;;5033667;28;20206;-74
2023/10/26 03:12:34;;;;;;;2.72;1.70;;;11.30;99.90;;;;;;5033914;28;20203;-74
2023/10/26 03:15:02;;;;;;;3.60;2.10;;;11.30;99.90;;;;;;5033470;28;20207;-74
2023/10/26 03:17:30;;;;;;;2.25;2.15;;;11.30;99.90;;;;;;5044635;28;20233;-73
2023/10/26 03:19:58;;;;;;;2.20;2.10;;;11.20;99.90;;;;;;5038465;28;20218;-73
2023/10/26 03:22:26;;;;;;;2.13;2.03;;;11.30;99.90;;;;;;5034186;28;20636;-74
2023/10/26 03:24:55;;;;;;;1.80;1.70;;;11.30;99.90;;;;;;5033128;28;20629;-74
2023/10/26 03:27:23;;;;;;;1.60;1.50;;;11.30;99.90;;;;;;5033359;28;20290;-74
2023/10/26 03:29:51;;;;;;;1.75;1.67;;;11.30;99.90;;;;;;5033313;28;20586;-74
2023/10/26 03:32:19;;;;;;;1.85;1.85;;;11.30;99.90;;;;;;5033215;28;20211;-74
2023/10/26 03:34:48;;;;;;;3.80;1.90;;;11.30;99.90;;;;;;5032995;28;20680;-74
2023/10/26 03:37:16;;;;;;;1.52;1.52;;;11.30;99.90;;;;;;5033050;28;20269;-73
2023/10/26 03:39:44;;;;;;;1.90;1.80;;;11.20;99.90;;;;;;5033543;28;20203;-73
2023/10/26 03:42:13;;;;;;;3.08;1.85;;;11.20;99.90;;;;;;5033053;28;20203;-73
2023/10/26 03:44:41;;;;;;;5.43;1.70;;;11.20;99.90;;;;;;5033186;28;20209;-74
2023/10/26 03:47:09;;;;;;;2.58;1.83;;;11.10;99.90;;;;;;5033001;28;20257;-74
2023/10/26 03:49:37;;;;;;;2.08;1.38;;;11.00;99.90;;;;;;5033168;28;20230;-74
2023/10/26 03:52:06;;;;;;;1.73;1.60;;;10.90;99.90;;;;;;5026327;28;20249;-74
2023/10/26 03:54:34;;;;;;;6.28;1.60;;;10.90;99.90;;;;;;5033126;28;20199;-74
2023/10/26 03:57:02;;;;;;;5.97;1.50;;;10.80;99.90;;;;;;5032143;28;20230;-74
2023/10/26 03:59:31;;;;;;;3.75;1.58;;;10.70;99.90;;;;;;5039006;28;20225;-74
2023/10/26 04:01:59;;;;;;;1.75;1.40;;;10.70;99.90;;;;;;5038428;28;20206;-74
2023/10/26 04:04:27;;;;;;;1.55;1.45;;;10.60;99.90;;;;;;5032544;28;20586;-74
2023/10/26 04:06:55;;;;;;;4.22;1.67;;;10.50;99.90;;;;;;5031205;28;20313;-73
2023/10/26 04:09:23;;;;;;;2.22;1.75;;;10.50;99.90;;;;;;5032704;28;20244;-74
2023/10/26 04:11:51;;;;;;;1.33;1.33;;;10.50;99.90;;;;;;5032772;28;20206;-74
2023/10/26 04:14:19;;;;;;;2.17;2.08;;;10.50;99.90;;;;;;5032320;28;20230;-74
2023/10/26 04:16:50;;;;;;;5.15;1.73;;;10.40;99.90;;;;;;5032807;28;20281;-74
2023/10/26 04:19:18;;;;;;;1.63;1.50;;;10.30;99.90;;;;;;5036137;28;20205;-75
2023/10/26 04:21:45;;;;;;;2.10;1.50;;;10.40;99.90;;;;;;5035667;28;20203;-75
2023/10/26 04:24:14;;;;;;;5.47;1.73;;;10.40;99.90;;;;;;5042849;28;20205;-75
2023/10/26 04:26:43;;;;;;;3.63;1.63;;;10.30;99.90;;;;;;5026061;28;20231;-75
2023/10/26 04:29:10;;;;;;;2.42;2.00;;;10.30;99.90;;;;;;5031530;28;20202;-75
2023/10/26 04:31:38;;;;;;;3.00;2.00;;;10.30;99.90;;;;;;5032008;28;20668;-75
2023/10/26 04:34:07;;;;;;;4.65;1.83;;;10.30;99.90;;;;;;5032052;28;20202;-75
2023/10/26 04:36:35;;;;;;;2.00;1.60;;;10.30;99.90;;;;;;5032285;28;20227;-75
2023/10/26 04:39:04;;;;;;;2.35;1.85;;;10.30;99.90;;;;;;5031846;28;20256;-75
2023/10/26 04:41:33;;;;;;;4.60;2.10;;;10.30;99.90;;;;;;5032225;28;20207;-75
2023/10/26 04:44:01;;;;;;;4.57;1.50;;;10.40;99.90;;;;;;5031642;28;20253;-75
2023/10/26 04:46:29;;;;;;;1.52;1.40;;;10.40;99.90;;;;;;5032051;28;20276;-75
2023/10/26 04:48:57;;;;;;;4.78;1.42;;;10.40;99.90;;;;;;5031882;28;20215;-75
2023/10/26 04:51:26;;;;;;;2.78;1.48;;;10.50;99.90;;;;;;5032005;28;20241;-75
2023/10/26 04:53:54;;;;;;;3.88;1.50;;;10.50;99.90;;;;;;5031634;28;20722;-75
2023/10/26 04:56:22;;;;;;;4.53;1.88;;;10.50;99.90;;;;;;5031458;28;20223;-75
2023/10/26 04:58:50;;;;;;;2.22;1.77;;;10.50;99.90;;;;;;5031873;28;20242;-75
2023/10/26 05:01:18;;;;;;;2.15;1.13;;;10.50;99.90;;;;;;5031736;28;20226;-75
2023/10/26 05:03:46;;;;;;;4.32;1.60;;;10.50;99.90;;;;;;5031523;28;20203;-75
2023/10/26 05:06:14;;;;;;;1.48;1.48;;;10.50;99.90;;;;;;5031758;28;20230;-75
2023/10/26 05:08:44;;;;;;;1.58;1.30;;;10.50;99.90;;;;;;5031383;28;20207;-75
2023/10/26 05:11:11;;;;;;;1.60;1.50;;;10.60;99.90;;;;;;5031432;28;20226;-75
2023/10/26 05:13:39;;;;;;;2.70;1.60;;;10.60;99.90;;;;;;5030646;28;20265;-75
2023/10/26 05:16:07;;;;;;;1.75;1.27;;;10.60;99.90;;;;;;5031192;28;20258;-76
2023/10/26 05:18:35;;;;;;;1.50;1.50;;;10.60;99.90;;;;;;5030640;28;20195;-75
2023/10/26 05:21:03;;;;;;;1.10;1.02;;;10.60;99.90;;;;;;5029484;28;20210;-75
2023/10/26 05:23:31;;;;;;;1.50;1.20;;;10.60;99.90;;;;;;5030050;28;20302;-75
2023/10/26 05:26:01;;;;;;;2.72;1.45;;;10.50;99.90;;;;;;5031129;28;20284;-75
2023/10/26 05:28:29;;;;;;;5.60;1.48;;;10.60;99.90;;;;;;5030877;28;20199;-75
2023/10/26 05:30:57;;;;;;;1.67;1.20;;;10.50;99.90;;;;;;5031162;28;20222;-75
2023/10/26 05:33:25;;;;;;;2.42;1.20;;;10.60;99.90;;;;;;5030837;28;20410;-75
2023/10/26 05:35:52;;;;;;;1.33;1.10;;;10.60;99.90;;;;;;5030832;28;20226;-75
2023/10/26 05:38:21;;;;;;;0.98;0.90;;;10.60;99.90;;;;;;5031157;28;20664;-76
2023/10/26 05:40:50;;;;;;;3.28;1.20;;;10.60;99.90;;;;;;5031152;28;20213;-75
2023/10/26 05:43:19;;;;;;;2.80;1.00;;;10.60;99.90;;;;;;5026335;28;20654;-75
2023/10/26 05:45:47;;;;;;;6.22;1.25;;;10.60;99.90;;;;;;5031170;28;20222;-75
2023/10/26 05:48:16;;;;;;;2.38;0.90;;;10.60;99.90;;;;;;5028994;28;20218;-75
2023/10/26 05:50:44;;;;;;;1.60;1.25;;;10.60;99.90;;;;;;5030335;28;20202;-75
2023/10/26 05:53:12;;;;;;;0.90;0.90;;;10.70;99.90;;;;;;5031086;28;20753;-75
2023/10/26 05:55:40;;;;;;;1.00;1.00;;;10.60;99.90;;;;;;5031217;28;20222;-75
2023/10/26 05:58:09;;;;;;;0.95;0.95;;;10.60;99.90;;;;;;5027469;28;20199;-75
2023/10/26 06:00:38;;;;;;;3.13;0.88;;;10.60;99.90;;;;;;5030809;28;20261;-74
2023/10/26 06:03:07;;;;;;;1.70;0.75;;;10.60;99.90;;;;;;5030198;28;20206;-74
2023/10/26 06:05:35;;;;;;;4.43;0.93;;;10.60;99.90;;;;;;5030993;28;20257;-74
2023/10/26 06:08:03;;;;;;;0.95;0.90;;;10.60;99.90;;;;;;5030661;28;20321;-74
2023/10/26 06:10:31;;;;;;;1.02;0.93;;;10.60;99.90;;;;;;5030781;28;20206;-74
2023/10/26 06:12:58;;;;;;;3.55;0.93;;;10.60;99.90;;;;;;5030486;28;20636;-74
2023/10/26 06:15:26;;;;;;;3.35;0.90;;;10.60;99.90;;;;;;5030373;28;20745;-74
2023/10/26 06:17:55;;;;;;;5.95;0.88;;;10.60;99.90;;;;;;5030764;28;20203;-74
2023/10/26 06:20:27;;;;;;;0.93;0.93;;;10.60;99.90;;;;;;5031104;28;20203;-74
2023/10/26 06:22:55;;;;;;;2.03;0.75;;;10.60;99.90;;;;;;5030807;28;20210;-74
2023/10/26 06:25:25;;;;;;;2.72;0.75;;;10.60;99.90;;;;;;5030320;28;20729;-74
2023/10/26 06:27:53;;;;;;;1.85;0.85;;;10.60;99.90;;;;;;5030132;28;20223;-74
2023/10/26 06:30:21;;;;;;;0.80;0.73;;;10.60;99.90;;;;;;5031210;28;20754;-74
2023/10/26 06:32:49;;;;;;;1.13;0.80;;;10.60;99.90;;;;;;5034307;28;20202;-74
2023/10/26 06:35:18;;;;;;;0.70;0.70;;;10.60;99.90;;;;;;5034145;28;20213;-74
2023/10/26 06:37:46;;;;;;;1.60;0.90;;;10.60;99.90;;;;;;5034578;28;20230;-74
2023/10/26 06:40:16;;;;;;;1.30;0.70;;;10.60;99.90;;;;;;5033862;28;20202;-74
2023/10/26 06:42:44;;;;;;;1.35;0.77;;;10.60;99.90;;;;;;5033718;28;20199;-74
2023/10/26 06:45:12;;;;;;;4.03;0.68;;;10.60;99.90;;;;;;5032763;28;20639;-74
2023/10/26 06:47:40;;;;;;;1.30;0.68;;;10.60;99.90;;;;;;5033808;28;20668;-74
2023/10/26 06:50:08;;;;;;;1.10;1.10;;;10.60;99.90;;;;;;5034082;28;20672;-74
2023/10/26 06:52:37;;;;;;;0.73;0.73;;;10.60;99.90;;;;;;5034211;28;20211;-74
2023/10/26 06:55:06;;;;;;;2.95;1.00;;;10.60;99.90;;;;;;5033946;28;20276;-74
2023/10/26 06:57:50;;;;;;;1.48;0.90;;;10.70;99.90;;;;;;5033997;28;20597;-74
2023/10/26 07:00:19;;;;;;;2.40;1.27;;;10.70;99.90;;;;;;5034341;28;20726;-74
2023/10/26 07:02:48;;;;;;;1.00;1.00;;;10.70;99.90;;;;;;5034174;28;20213;-74
2023/10/26 07:05:16;;;;;;;1.02;1.00;;;10.70;99.90;;;;;;5033797;28;20726;-74
2023/10/26 07:07:45;;;;;;;2.03;1.10;;;10.80;99.90;;;;;;5033744;28;20264;-74
2023/10/26 07:10:15;;;;;;;2.08;1.02;;;10.80;99.90;;;;;;5034107;28;20207;-74
2023/10/26 07:12:43;;;;;;;1.60;0.93;;;10.90;99.90;;;;;;5033599;28;20230;-74
2023/10/26 07:15:11;;;;;;;2.55;1.55;;;10.90;99.90;;;;;;5033653;28;20256;-74
2023/10/26 07:17:39;;;;;;;5.63;1.20;;;10.90;99.90;;;;;;5033810;28;20230;-74
2023/10/26 07:20:08;;;;;;;5.95;0.88;;;10.90;99.90;;;;;;5033172;28;20207;-74
2023/10/26 07:22:36;;;;;;;0.80;0.80;;;10.90;99.90;;;;;;5030808;28;20272;-74
2023/10/26 07:25:07;;;;;;;1.27;0.95;;;11.00;99.90;;;;;;5033585;28;20264;-73
2023/10/26 07:27:35;;;;;;;2.40;0.85;;;11.00;99.90;;;;;;5031354;28;20326;-73
2023/10/26 07:30:03;;;;;;;0.57;0.57;;;11.10;99.90;;;;;;5033718;28;20732;-73
2023/10/26 07:32:31;;;;;;;0.30;0.30;;;11.70;99.90;;;;;;5033531;28;20202;-73
2023/10/26 07:35:01;;;;;;;3.50;0.52;;;12.40;99.90;;;;;;5033318;28;20576;-74
2023/10/26 07:37:29;;;;;;;2.20;0.70;;;13.10;99.90;;;;;;5032856;28;20222;-74
2023/10/26 07:39:57;;;;;;;2.47;0.57;;;13.20;99.90;;;;;;5024397;28;20211;-74
2023/10/26 07:42:46;;;;;;;2.03;0.60;;;13.00;99.90;;;;;;5027106;28;20218;-74
2023/10/26 07:45:14;;;;;;;0.60;0.60;;;12.70;99.90;;;;;;5030879;28;20579;-74
2023/10/26 07:47:42;;;;;;;2.40;0.70;;;12.40;99.90;;;;;;5032572;28;20244;-74
2023/10/26 07:50:11;;;;;;;0.70;0.70;;;12.20;99.90;;;;;;5033555;28;20206;-74
2023/10/26 07:52:39;;;;;;;1.95;0.68;;;12.00;99.90;;;;;;5033274;28;20213;-74
2023/10/26 07:55:08;;;;;;;3.05;0.90;;;11.90;99.90;;;;;;5033045;28;20268;-74
2023/10/26 07:57:36;;;;;;;1.45;0.60;;;11.80;99.90;;;;;;5033392;28;20250;-74
2023/10/26 08:00:08;;;;;;;2.08;0.70;;;11.80;99.90;;;;;;5033147;28;20203;-74
2023/10/26 08:02:35;;;;;;;1.20;0.60;;;11.90;99.90;;;;;;5033172;28;20238;-74
2023/10/26 08:05:08;;;;;;;2.00;0.80;;;11.90;99.90;;;;;;5030549;28;20562;-74
2023/10/26 08:07:36;;;;;;;1.67;0.70;;;11.90;99.90;;;;;;5032511;28;20219;-74
2023/10/26 08:10:05;;;;;;;1.33;0.60;;;11.90;99.90;;;;;;5032845;28;20231;-74
2023/10/26 08:12:33;;;;;;;3.63;0.60;;;11.90;99.90;;;;;;5033033;28;20233;-74
2023/10/26 08:15:02;;;;;;;4.45;0.80;;;11.90;99.90;;;;;;5032455;28;20238;-74
2023/10/26 08:17:51;;;;;;;1.00;0.90;;;11.90;99.90;;;;;;5032990;28;20205;-74
2023/10/26 08:20:20;;;;;;;0.85;0.68;;;11.90;99.90;;;;;;5032535;28;20696;-74
2023/10/26 08:22:48;;;;;;;0.50;0.50;;;11.80;99.90;;;;;;5032100;28;20203;-74
2023/10/26 08:25:16;;;;;;;1.05;0.60;;;11.80;99.90;;;;;;5032650;28;20217;-74
2023/10/26 08:27:51;;;;;;;0.88;0.70;;;11.80;99.90;;;;;;5032695;28;20229;-74
2023/10/26 08:30:19;;;;;;;2.75;0.55;;;11.80;99.90;;;;;;5032709;28;20206;-74
2023/10/26 08:32:49;;;;;;;0.73;0.70;;;11.80;99.90;;;;;;5032209;28;20226;-74
2023/10/26 08:35:19;;;;;;;2.83;0.77;;;11.70;99.90;;;;;;5030238;28;20256;-73
2023/10/26 08:37:47;;;;;;;0.65;0.57;;;11.80;99.90;;;;;;5032301;28;20321;-74
2023/10/26 08:40:16;;;;;;;2.58;0.70;;;11.80;99.90;;;;;;5031839;28;20217;-74
2023/10/26 08:42:44;;;;;;;3.50;0.73;;;11.80;99.90;;;;;;5031656;28;20298;-74
2023/10/26 08:45:13;;;;;;;0.60;0.60;;;11.70;99.90;;;;;;5031847;28;20304;-74
2023/10/26 08:47:41;;;;;;;0.75;0.70;;;11.80;99.90;;;;;;5031466;28;20773;-74
2023/10/26 08:50:11;;;;;;;2.13;0.70;;;11.80;99.90;;;;;;5030868;28;20206;-74
2023/10/26 08:52:45;;;;;;;0.60;0.60;;;11.80;99.90;;;;;;5029599;28;20214;-74
2023/10/26 08:55:13;;;;;;;0.65;0.65;;;11.80;99.90;;;;;;5030084;28;20672;-74
2023/10/26 08:57:46;;;;;;;1.45;0.63;;;11.90;99.90;;;;;;5030048;28;20230;-74
2023/10/26 09:00:15;;;;;;;0.63;0.63;;;11.90;99.90;;;;;;5029477;28;20213;-74
2023/10/26 09:02:43;;;;;;;2.55;0.75;;;12.00;99.90;;;;;;5030344;28;20199;-74
2023/10/26 09:05:12;;;;;;;2.80;0.60;;;12.00;99.90;;;;;;5030931;28;20257;-74
2023/10/26 09:07:40;;;;;;;4.10;0.90;;;12.00;99.90;;;;;;5031702;28;20597;-74
2023/10/26 09:10:10;;;;;;;0.70;0.70;;;12.00;99.90;;;;;;5032227;28;20722;-74
2023/10/26 09:12:38;;;;;;;0.60;0.60;;;12.00;99.90;;;;;;5031960;28;20209;-74
2023/10/26 09:15:08;;;;;;;6.68;0.60;;;12.10;99.90;;;;;;5031383;28;20210;-74
2023/10/26 09:17:36;;;;;;;0.57;0.43;;;12.10;99.90;;;;;;5031769;28;20735;-74
2023/10/26 09:20:15;;;;;;;0.73;0.57;;;12.20;99.90;;;;;;5031790;28;20302;-74
2023/10/26 09:22:43;;;;;;;2.72;0.90;;;12.20;99.90;;;;;;5031315;28;20261;-74
2023/10/26 09:25:13;;;;;;;1.85;0.50;;;12.30;99.90;;;;;;5031391;28;20676;-74
2023/10/26 09:27:42;;;;;;;0.60;0.60;;;12.30;99.90;;;;;;5031739;28;20276;-74
2023/10/26 09:30:23;;;;;;;0.90;0.65;;;12.30;99.90;;;;;;5029944;28;20672;-74
2023/10/26 09:32:51;;;;;;;1.23;0.98;;;12.30;99.90;;;;;;5031318;28;20210;-74
2023/10/26 09:35:26;;;;;;;2.45;0.70;;;12.30;99.90;;;;;;5031296;28;20206;-74
2023/10/26 09:37:54;;;;;;;1.70;0.75;;;12.30;99.90;;;;;;5031233;28;20582;-74
2023/10/26 09:40:23;;;;;;;2.70;0.80;;;12.30;99.90;;;;;;5031477;28;20265;-74
2023/10/26 09:42:52;;;;;;;2.90;0.68;;;12.40;99.90;;;;;;5031578;28;20244;-74
2023/10/26 09:45:20;;;;;;;0.75;0.63;;;12.40;99.90;;;;;;5030331;28;20268;-74
2023/10/26 09:47:48;;;;;;;3.10;0.70;;;12.40;99.90;;;;;;5030539;28;20207;-74
2023/10/26 09:50:16;;;;;;;0.60;0.60;;;12.50;99.90;;;;;;5030183;28;20226;-74
2023/10/26 09:52:44;;;;;;;1.60;0.70;;;12.60;99.90;;;;;;5031197;28;20206;-74
2023/10/26 09:55:12;;;;;;;0.50;0.50;;;12.60;99.90;;;;;;5031255;28;20238;-74
2023/10/26 09:57:44;;;;;;;2.38;0.60;;;12.60;99.90;;;;;;5031090;28;20313;-74
2023/10/26 10:00:13;;;;;;;0.80;0.52;;;12.60;99.90;;;;;;5031417;28;20214;-74
2023/10/26 10:02:41;;;;;;;3.25;0.50;;;12.60;99.90;;;;;;5031087;28;20207;-74
2023/10/26 10:05:35;;;;;;;2.25;0.70;;;12.60;99.90;;;;;;5032279;28;20206;-74
2023/10/26 10:08:03;;;;;;;0.60;0.50;;;12.60;99.90;;;;;;5035481;28;20238;-74
2023/10/26 10:10:31;;;;;;;4.35;0.70;;;12.60;99.90;;;;;;5035217;28;20222;-74
2023/10/26 10:13:01;;;;;;;0.50;0.50;;;12.60;99.90;;;;;;5035049;28;20564;-74
2023/10/26 10:15:35;;;;;;;2.55;0.80;;;12.60;99.90;;;;;;5038931;28;20292;-74
2023/10/26 10:18:09;;;;;;;1.95;0.93;;;12.60;99.90;;;;;;5050600;22;20225;-60
2023/10/26 10:20:37;;;;;;;0.63;0.63;;;12.60;99.90;;;;;;5042232;28;20234;-58
2023/10/26 10:23:05;;;;;;;1.40;0.80;;;12.60;99.90;;;;;;5034713;28;20253;-59
2023/10/26 10:26:00;;;;;;;1.70;0.40;;;12.60;99.90;;;;;;5034494;28;20277;-60
2023/10/26 10:28:48;;;;;;;1.10;0.50;;;12.60;99.90;;;;;;5034631;28;20198;-60
2023/10/26 10:31:23;;;;;;;3.15;0.90;;;12.60;99.90;;;;;;5034509;28;20207;-59
2023/10/26 10:34:02;;;;;;;0.40;0.40;;;12.60;99.90;;;;;;5029940;28;20302;-60
2023/10/26 10:36:30;;;;;;;0.52;0.40;;;12.60;99.90;;;;;;5047685;28;20257;-60
2023/10/26 10:39:22;;;;;;;10.23;2.40;;;12.50;99.90;;;;;;5029787;28;20294;-57
2023/10/26 10:41:51;;;;;;;2.03;1.10;;;12.80;99.90;;;;;;5042773;28;20201;-56
2023/10/26 10:44:20;;;;;;;2.08;0.88;;;13.10;99.90;;;;;;5044128;28;20206;-57
2023/10/26 10:46:48;;;;;;;1.15;0.70;;;13.30;99.90;;;;;;5048890;28;20265;-57
2023/10/26 10:49:16;;;;;;;1.63;0.60;;;13.50;99.90;;;;;;5033923;28;20696;-58
2023/10/26 10:51:44;;;;;;;0.50;0.50;;;13.80;99.90;;;;;;5034254;28;20237;-59
2023/10/26 10:54:14;;;;;;;0.68;0.47;;;13.80;99.90;;;;;;5033854;28;20290;-59
2023/10/26 10:57:05;;;;;;;1.95;0.43;;;13.70;99.90;;;;;;5033830;28;20226;-59
2023/10/26 10:59:34;;;;;;;1.17;0.60;;;13.50;99.90;;;;;;5034029;28;20198;-60
2023/10/26 11:02:09;;;;;;;0.70;0.70;;;13.40;99.90;;;;;;5034256;28;20207;-59
2023/10/26 11:04:50;;;;;;;0.90;0.70;;;13.30;99.90;;;;;;5033709;28;20202;-59
2023/10/26 11:07:32;;;;;;;0.70;0.70;;;13.20;99.90;;;;;;5034328;28;20202;-59
2023/10/26 11:10:02;;;;;;;1.42;0.85;;;13.20;99.90;;;;;;5033928;28;20238;-60
2023/10/26 11:12:31;;;;;;;0.73;0.63;;;13.10;99.90;;;;;;5034012;28;20234;-59
2023/10/26 11:15:00;;;;;;;2.78;0.60;;;13.10;99.90;;;;;;5033254;28;20210;-59
2023/10/26 11:17:29;;;;;;;0.60;0.60;;;13.10;99.90;;;;;;5033807;28;20207;-59
2023/10/26 11:19:57;;;;;;;1.55;0.75;;;13.00;99.90;;;;;;5033473;28;20214;-59
2023/10/26 11:22:26;;;;;;;1.38;0.70;;;13.10;99.90;;;;;;5033826;28;20207;-60
2023/10/26 11:24:54;;;;;;;2.60;0.68;;;13.10;99.90;;;;;;5033445;28;20198;-60
2023/10/26 11:27:22;;;;;;;5.22;0.80;;;13.10;99.90;;;;;;5033790;28;20260;-60
2023/10/26 11:30:03;;;;;;;1.63;1.42;;;13.20;99.90;;;;;;5033365;28;20321;-60
2023/10/26 11:32:31;;;;;;;2.70;1.85;;;13.30;99.90;;;;;;5033566;28;20538;-60
2023/10/26 11:35:03;;;;;;;1.90;1.90;;;13.30;99.90;;;;;;5033227;28;20218;-60
2023/10/26 11:37:31;;;;;;;2.97;2.00;;;13.30;99.90;;;;;;5033564;28;20297;-60
2023/10/26 11:39:59;;;;;;;3.85;2.25;;;13.20;99.90;;;;;;5033359;28;20286;-59
2023/10/26 11:42:47;;;;;;;2.28;2.08;;;13.10;99.90;;;;;;5033322;28;20255;-58
2023/10/26 11:45:16;;;;;;;2.60;2.50;;;13.10;99.90;;;;;;5032998;28;20730;-60
2023/10/26 11:47:47;;;;;;;2.22;2.03;;;13.00;99.90;;;;;;5033252;28;20616;-59
2023/10/26 11:50:22;;;;;;;2.97;2.10;;;13.00;99.90;;;;;;5033148;28;20863;-59
2023/10/26 11:52:50;;;;;;;5.35;2.45;;;13.00;99.90;;;;;;5032936;28;20228;-59
2023/10/26 11:55:18;;;;;;;2.55;1.90;;;12.90;99.90;;;;;;5033071;28;20262;-60
2023/10/26 11:57:46;;;;;;;2.00;1.90;;;12.90;99.90;;;;;;5032785;28;20688;-60
2023/10/26 12:00:17;;;;;;;2.35;2.25;;;12.80;99.90;;;;;;5033175;28;20593;-60
2023/10/26 12:02:44;;;;;;;2.65;2.55;;;12.80;99.90;;;;;;5032986;28;20691;-60
2023/10/26 12:05:15;;;;;;;4.60;2.17;;;12.80;99.90;;;;;;5032728;28;20210;-58
2023/10/26 12:07:43;;;;;;;5.22;2.28;;;12.70;99.90;;;;;;5032808;28;20211;-59
2023/10/26 12:10:11;;;;;;;3.33;2.70;;;12.70;99.90;;;;;;5032959;28;20234;-58
2023/10/26 12:12:39;;;;;;;2.95;2.70;;;12.70;99.90;;;;;;5032994;28;20202;-58
2023/10/26 12:15:08;;;;;;;4.53;2.78;;;12.70;99.90;;;;;;5032281;28;20206;-59
2023/10/26 12:17:37;;;;;;;3.58;3.28;;;12.70;99.90;;;;;;5032804;28;20698;-54
2023/10/26 12:20:06;;;;;;;5.20;2.85;;;12.80;99.90;;;;;;5032515;28;20583;-53
2023/10/26 12:22:34;;;;;;;7.80;3.20;;;12.80;99.90;;;;;;5032646;28;20289;-53
2023/10/26 12:25:04;;;;;;;3.95;3.55;;;12.90;99.90;;;;;;5032298;28;20230;-55
2023/10/26 12:27:32;;;;;;;8.20;3.40;;;13.00;99.90;;;;;;5031774;28;20252;-57
2023/10/26 12:30:20;;;;;;;5.32;3.50;;;13.20;99.90;;;;;;5032459;28;20253;-56
2023/10/26 12:32:49;;;;;;;6.47;3.55;;;13.30;99.90;;;;;;5032430;28;20289;-53
2023/10/26 12:35:17;;;;;;;4.45;3.78;;;13.40;99.90;;;;;;5032129;28;20609;-53
2023/10/26 12:37:45;;;;;;;8.23;4.47;;;13.40;99.90;;;;;;5032411;28;20225;-54
2023/10/26 12:40:13;;;;;;;3.92;3.63;;;13.40;99.90;;;;;;5032404;28;20246;-53
2023/10/26 12:42:41;;;;;;;3.10;2.90;;;13.40;99.90;;;;;;5032215;28;20668;-54
2023/10/26 12:45:09;;;;;;;4.50;2.75;;;13.40;99.90;;;;;;5031648;28;20202;-53
2023/10/26 12:47:37;;;;;;;3.35;3.15;;;13.50;99.90;;;;;;5032363;28;20238;-53
2023/10/26 12:50:07;;;;;;;3.85;3.15;;;13.60;99.90;;;;;;5032030;28;20207;-53
2023/10/26 12:52:35;;;;;;;7.00;3.95;;;13.70;99.90;;;;;;5032043;28;20304;-54
2023/10/26 12:55:03;;;;;;;7.88;4.05;;;13.80;99.90;;;;;;5031478;28;20659;-54
2023/10/26 12:57:31;;;;;;;7.00;4.05;;;13.90;99.90;;;;;;5031851;28;20213;-57
2023/10/26 12:59:59;;;;;;;5.05;4.55;;;13.90;99.90;;;;;;5031912;28;20210;-55